Custer, WA (98240)

6:47 PM PST on December 04, 2016 (GMT -0800)
Valley View Hilltop | | Change Station
Active Advisory: Winter Weather Advisory

Elev 265 ft 48.89 °N, 122.66 °W | Updated 4 seconds ago

Scattered Clouds
Scattered Clouds
40.3 °F
Feels Like 40 °F
N
2.7
Wind Variable Wind from WNW
Gusts 4.9 mph

Today
High -- | Low -- °F
--% Chance of Precip.
Yesterday
High -- | Low -- °F
Precip. -- in
Pressure 30.10 in
Visibility 10.0 miles
Clouds Scattered Clouds 3700 ft
Windchill 40 °F
Dew Point 24 °F
Humidity 53%
Rainfall 0.00 in
Snow Depth Not available.
7:47 AM 4:14 PM
Waxing Crescent, 27% visible
METAR KBLI 050153Z 00000KT 10SM SCT037 04/M01 A3008 RMK AO2 SLP193 T00391006
Pressure 30.10 in
Visibility 10.0 miles
Clouds Scattered Clouds 3700 ft
Windchill 40 °F
Dew Point 24 °F
Humidity 53%
Rainfall 0.00 in
Snow Depth Not available.
7:47 AM 4:14 PM
Waxing Crescent, 27% visible
METAR KBLI 050153Z 00000KT 10SM SCT037 04/M01 A3008 RMK AO2 SLP193 T00391006

10-Day Weather Forecast

Almanac

Astronomy

Dec. 04, 2016 Rise Set
Actual Time
Civil Twilight
Nautical Twilight
Astronomical Twilight
Moon
Length of Visible Light
Length of Day
Tomorrow will be .
, % of the Moon is Illuminated

Today's Extremes

State Highs State Lows

Community

WunderPhotos

Upload Photos

1,955,744 photos uploaded!

WunderBlog® & News

Nearby

Air Quality

  Air Quality AQ Index Pollutant
Not available.

Snow Depth

Station Depth Elevation

Earthquake Activity

City Distance Mag. Time & Date
Minimum magnitude displayed is 2.5.

Coastal Water Temperatures

Place Temperature

Stations

Nearby Weather Stations

Station Location Temp. Windchill Dew Point Humidity Wind Precip. Elev Updated Type
                   

Watches & Warnings

Winter Weather Advisory
Issued: 1:07 PM PST Dec. 4, 2016 – National Weather Service

... Winter Weather Advisory in effect from 4 am to noon PST Monday...

The National Weather Service in Seattle has issued a Winter Weather
Advisory... which is in effect from 4 am to noon PST Monday.

* Timing... Monday morning between 4 am and noon.

* Snow amounts... 1 to 2 inches of wet snow... mainly above 500
feet. Less than 1 inch of snow below 500 feet.

* Snow levels... mainly near 500 feet... except briefly lower in
heavier showers.

* Impacts... hazardous driving conditions are possible during the
morning commute on Monday mainly on the higher hills.

Precautionary/preparedness actions...

A Winter Weather Advisory for snow means that periods of snow could
cause travel difficulties. Use caution while driving.